createdAt,value
2022-12-23T00:00:28.321Z,9.48
2022-12-23T00:15:24.038Z,9.73
2022-12-23T00:30:24.138Z,9.82
2022-12-23T00:45:24.068Z,9.98
2022-12-23T01:00:32.044Z,9.80
2022-12-23T01:15:23.931Z,10.07
2022-12-23T01:30:24.305Z,10.30
2022-12-23T01:45:24.245Z,10.33
2022-12-23T02:00:26.967Z,10.25
2022-12-23T02:15:24.455Z,10.30
2022-12-23T02:30:34.155Z,10.35
2022-12-23T02:45:33.409Z,10.27
2022-12-23T03:00:37.747Z,10.17
2022-12-23T03:15:23.183Z,10.33
2022-12-23T03:30:23.363Z,9.85
2022-12-23T03:45:40.493Z,9.73
2022-12-23T04:00:29.509Z,9.62
2022-12-23T04:15:23.436Z,9.90
2022-12-23T04:30:26.752Z,9.82
2022-12-23T04:45:23.419Z,9.73
2022-12-23T05:00:37.156Z,9.60
2022-12-23T05:15:23.526Z,9.70
2022-12-23T05:30:23.532Z,9.55
2022-12-23T05:45:23.816Z,9.62
2022-12-23T06:00:27.602Z,9.57
2022-12-23T06:15:23.681Z,9.63
2022-12-23T06:30:23.804Z,9.43
2022-12-23T06:45:23.803Z,9.25
2022-12-23T07:00:25.477Z,9.23
2022-12-23T07:15:23.659Z,9.00
2022-12-23T07:30:23.852Z,8.85
2022-12-23T07:45:23.811Z,8.88
2022-12-23T08:00:38.171Z,9.05
2022-12-23T08:15:23.687Z,9.23
2022-12-23T13:37:58.269Z,12.10
2022-12-23T13:50:14.026Z,12.18
2022-12-23T14:05:16.799Z,12.20
2022-12-23T14:15:24.551Z,12.33
2022-12-23T14:30:28.115Z,12.40
2022-12-23T14:45:33.656Z,12.43
2022-12-23T15:00:37.667Z,12.42
2022-12-23T15:15:22.997Z,12.42
2022-12-23T15:30:23.156Z,12.50
2022-12-23T15:45:23.287Z,12.53
2022-12-23T16:00:23.698Z,12.38
2022-12-23T16:15:23.039Z,12.35
2022-12-23T16:30:23.215Z,12.53
2022-12-23T16:45:23.327Z,12.45
2022-12-23T17:00:38.216Z,12.43
2022-12-23T17:15:23.182Z,12.40
2022-12-23T17:30:23.233Z,12.48
2022-12-23T17:45:23.416Z,12.60
2022-12-23T18:00:33.989Z,12.65
2022-12-23T18:15:23.531Z,12.70
2022-12-23T18:30:31.072Z,12.73
2022-12-23T18:45:23.468Z,12.80
2022-12-23T19:00:25.491Z,12.68
2022-12-23T19:15:23.657Z,12.60
2022-12-23T19:30:24.169Z,12.43
2022-12-23T19:45:23.741Z,12.30
2022-12-23T20:00:36.531Z,12.02
2022-12-23T20:15:24.480Z,11.88
2022-12-23T20:30:25.209Z,11.80
2022-12-23T20:45:23.809Z,11.82
2022-12-23T21:00:25.529Z,12.02
2022-12-23T21:15:23.916Z,12.00
2022-12-23T21:30:23.794Z,11.85
2022-12-23T21:45:23.620Z,11.97
2022-12-23T22:00:24.325Z,11.67
2022-12-23T22:15:23.927Z,11.53
2022-12-23T22:30:23.845Z,11.38
2022-12-23T22:45:23.993Z,11.23
2022-12-23T23:03:07.928Z,10.70
2022-12-23T23:15:23.872Z,10.85
2022-12-23T23:30:23.900Z,10.38
2022-12-23T23:45:24.012Z,10.10
